Time;durP1;ratioP1;P1;durP2;ratioP2;P2;SDS_P1;SDS_P2;PMS_P1;PMS_P2;Temp;Humidity;BMP_temperature;BMP_pressure;BME280_temperature;BME280_humidity;BME280_pressure;Samples;Min_cycle;Max_cycle;Signal;HPM_P1;HPM_P2
2022/12/17 13:07:58;;;;;;;;;;;;;;;;;;10498212;28;19951;-69
2022/12/17 13:13:00;;;;;;;;;;;;;;;;;;10497589;28;20291;-69
2022/12/17 13:18:02;;;;;;;;;;;;;;;;;;10494086;28;20284;-69
2022/12/17 13:23:04;;;;;;;;;;;;;;;;;;10497233;28;19924;-69
2022/12/17 13:28:06;;;;;;;;;;;;;;;;;;10496269;28;19978;-69
2022/12/17 13:33:08;;;;;;;;;;;;;;;;;;10457161;28;20400;-69
2022/12/17 13:38:10;;;;;;;;;;;;;;;;;;10497563;28;19928;-69
2022/12/17 13:43:13;;;;;;;;;;;;;;;;;;10502329;28;19925;-69
2022/12/17 13:48:15;;;;;;;;;;;;;;;;;;10504255;28;19974;-69
2022/12/17 13:53:17;;;;;;;;;;;;;;;;;;10502652;28;19925;-69
2022/12/17 13:58:19;;;;;;;;;;;;;;;;;;10504381;28;19978;-69
2022/12/17 14:03:22;;;;;;;;;;;;;;;;;;10502983;28;19928;-69
2022/12/17 14:08:44;;;;;;;;;;;;;;;;;;10504396;28;19960;-68
2022/12/17 14:13:46;;;;;;;;;;;;;;;;;;10503683;28;21305;-69
2022/12/17 14:18:48;;;;;;;;;;;;;;;;;;10501884;28;20375;-69
2022/12/17 14:23:50;;;;;;;;;;;;;;;;;;10503716;28;19932;-69
2022/12/17 14:28:52;;;;;;;;;;;;;;;;;;10501679;28;20295;-69
2022/12/17 14:33:54;;;;;;;;;;;;;;;;;;10501204;28;19928;-69
2022/12/17 14:38:56;;;;;;;;;;;;;;;;;;10502156;28;19925;-69
2022/12/17 14:43:58;;;;;;;;;;;;;;;;;;10501813;28;20428;-69
2022/12/17 14:49:00;;;;;;;;;;;;;;;;;;10502214;28;19924;-69
2022/12/17 14:54:02;;;;;;;;;;;;;;;;;;10500754;28;19925;-69
2022/12/17 14:59:04;;;;;;;;;;;;;;;;;;10495623;28;19932;-69
2022/12/17 15:04:06;;;;;;;;;;;;;;;;;;10483434;28;19994;-67
2022/12/17 15:09:08;;;;;;;;;;;;;;;;;;10483035;28;19947;-65
2022/12/17 15:14:10;;;;;;;;;;;;;;;;;;10499580;28;20395;-63
2022/12/17 15:19:25;;;;;;;0.65;0.65;;;;;;;-1.05;100.00;102605.69;10588891;22;20208;-63
2022/12/17 15:24:27;;;;;;;0.22;0.22;;;;;;;-0.96;100.00;102609.31;10534803;28;20055;-64
2022/12/17 15:29:30;;;;;;;3.50;3.30;;;;;;;-1.41;100.00;102622.94;10534659;28;20098;-65
2022/12/17 15:34:33;;;;;;;1.17;1.17;;;;;;;-1.21;100.00;102619.91;10534438;28;20200;-66
2022/12/17 15:39:35;;;;;;;1.95;1.83;;;;;;;-1.03;100.00;102634.84;10534086;28;20404;-67
2022/12/17 15:44:37;;;;;;;4.65;1.85;;;;;;;-1.33;100.00;102646.22;10533252;28;20048;-68
2022/12/17 15:49:40;;;;;;;0.80;0.80;;;;;;;-1.44;100.00;102643.44;10533311;28;20510;-67
2022/12/17 15:54:42;;;;;;;0.30;0.30;;;;;;;-1.64;100.00;102645.56;10533453;28;20052;-68
2022/12/17 15:59:45;;;;;;;5.20;2.67;;;;;;;-1.60;100.00;102655.06;10532629;28;20090;-69
2022/12/17 16:04:47;;;;;;;3.60;1.42;;;;;;;-1.64;100.00;102653.25;10514087;28;20048;-68
2022/12/17 16:09:49;;;;;;;5.45;1.90;;;;;;;-1.84;100.00;102668.19;10529897;28;20056;-68
2022/12/17 16:14:52;;;;;;;1.50;0.90;;;;;;;-2.01;100.00;102666.94;10531147;28;20487;-68
2022/12/17 16:19:54;;;;;;;2.05;1.85;;;;;;;-1.99;100.00;102661.00;10443340;28;20052;-68
2022/12/17 16:24:57;;;;;;;9.45;7.95;;;;;;;-2.17;100.00;102668.22;10448114;28;20046;-68
2022/12/17 16:29:59;;;;;;;7.30;4.45;;;;;;;-2.19;100.00;102673.31;10425264;28;20053;-68
2022/12/17 16:35:03;;;;;;;3.60;0.57;;;;;;;-2.14;100.00;102674.31;10420339;28;20045;-68
2022/12/17 16:40:06;;;;;;;1.00;1.00;;;;;;;-1.88;100.00;102661.28;10418581;28;20460;-69
2022/12/17 16:45:09;;;;;;;2.70;2.55;;;;;;;-2.13;100.00;102667.50;10408914;28;20448;-68
2022/12/17 16:50:11;;;;;;;8.57;1.05;;;;;;;-1.83;100.00;102671.63;10416825;28;20492;-69
2022/12/17 16:55:13;;;;;;;0.20;0.20;;;;;;;-2.00;100.00;102674.66;10419128;28;20053;-68
2022/12/17 17:00:16;;;;;;;4.93;2.80;;;;;;;-2.11;100.00;102679.53;10419117;28;20447;-68
2022/12/17 17:05:18;;;;;;;4.05;1.70;;;;;;;-2.11;100.00;102686.38;10419585;28;20100;-68
2022/12/17 17:10:20;;;;;;;3.50;3.17;;;;;;;-2.33;100.00;102685.81;10419369;28;20045;-68
2022/12/17 17:15:23;;;;;;;0.20;0.20;;;;;;;-2.11;100.00;102687.22;10419115;28;20053;-68
2022/12/17 17:20:25;;;;;;;10.52;9.73;;;;;;;-2.18;100.00;102680.19;10418572;28;20050;-69
2022/12/17 17:25:28;;;;;;;1.73;1.58;;;;;;;-2.54;100.00;102691.25;10418733;28;20045;-68
2022/12/17 17:30:52;;;;;;;10.38;2.72;;;;;;;-2.71;100.00;102687.31;10418628;28;20085;-68
2022/12/17 17:35:54;;;;;;;0.20;0.20;;;;;;;-2.58;100.00;102684.28;10416476;28;20092;-68
2022/12/17 17:41:09;;;;;;;3.72;2.80;;;;;;;-2.67;100.00;102700.28;10400889;28;20092;-68
2022/12/17 17:46:14;;;;;;;5.68;3.70;;;;;;;-3.19;100.00;102697.06;10418058;28;20042;-68
2022/12/17 17:51:19;;;;;;;1.27;0.82;;;;;;;-2.77;100.00;102699.97;10417138;28;20404;-69
2022/12/17 17:56:41;;;;;;;7.88;4.80;;;;;;;-2.95;100.00;102688.38;10416881;28;20535;-69
2022/12/17 18:01:45;;;;;;;9.18;2.28;;;;;;;-2.94;100.00;102709.72;10416651;28;20111;-69
2022/12/17 18:06:48;;;;;;;0.30;0.30;;;;;;;-3.01;100.00;102706.13;10416605;28;20532;-69
2022/12/17 18:17:31;;;;;;;2.85;2.42;;;;;;;-3.27;100.00;102715.63;10416778;28;20049;-69
2022/12/17 18:22:34;;;;;;;8.50;2.97;;;;;;;-3.52;100.00;102742.16;10414352;28;20061;-69
2022/12/17 18:27:36;;;;;;;0.93;0.88;;;;;;;-2.71;100.00;102733.47;10415809;28;20444;-69
2022/12/17 18:32:38;;;;;;;5.35;2.95;;;;;;;-3.03;100.00;102725.72;10416109;28;20057;-69
2022/12/17 18:37:41;;;;;;;3.15;2.90;;;;;;;-2.97;100.00;102732.75;10414021;28;20503;-69
2022/12/17 18:48:05;;;;;;;2.30;2.10;;;;;;;-3.55;100.00;102732.66;10413708;28;20049;-69
2022/12/17 18:53:07;;;;;;;9.10;2.40;;;;;;;-3.40;100.00;102719.47;10374559;28;20432;-69
2022/12/17 18:58:09;;;;;;;0.65;0.65;;;;;;;-3.44;100.00;102736.44;10375308;28;20057;-69
2022/12/17 19:03:12;;;;;;;0.40;0.40;;;;;;;-3.50;100.00;102731.13;10375273;28;20045;-69
2022/12/17 19:08:14;;;;;;;0.43;0.43;;;;;;;-3.33;100.00;102734.19;10375211;28;20058;-69
2022/12/17 19:13:16;;;;;;;4.47;3.15;;;;;;;-3.49;100.00;102742.25;10374390;28;20563;-69
2022/12/17 19:18:18;;;;;;;2.75;1.95;;;;;;;-3.80;100.00;102738.66;10374644;28;20058;-69
2022/12/17 19:23:21;;;;;;;1.15;1.10;;;;;;;-3.43;100.00;102744.97;10374220;28;20555;-69
2022/12/17 19:28:23;;;;;;;0.80;0.77;;;;;;;-3.48;100.00;102752.53;10374134;28;20481;-69
2022/12/17 19:33:25;;;;;;;4.32;2.17;;;;;;;-3.50;100.00;102756.72;10374598;28;20054;-70
2022/12/17 19:38:28;;;;;;;7.05;4.57;;;;;;;-3.50;100.00;102766.97;10388164;28;20045;-69
2022/12/17 19:43:30;;;;;;;1.40;1.30;;;;;;;-3.49;100.00;102768.72;10413878;28;20103;-69
2022/12/17 19:48:34;;;;;;;4.40;2.90;;;;;;;-3.66;100.00;102775.84;10414370;28;20046;-69
2022/12/17 19:53:38;;;;;;;10.80;1.63;;;;;;;-3.40;100.00;102768.13;10413861;28;20049;-69
2022/12/17 19:58:41;;;;;;;6.30;3.83;;;;;;;-3.59;100.00;102769.25;10414422;28;20373;-69
2022/12/17 20:03:44;;;;;;;6.38;5.07;;;;;;;-3.80;100.00;102765.16;10418005;28;20528;-69
2022/12/17 20:08:47;;;;;;;1.95;1.70;;;;;;;-3.63;100.00;102763.16;10421064;28;20539;-69
2022/12/17 20:13:58;;;;;;;5.72;5.38;;;;;;;-3.88;100.00;102766.59;10421651;28;20107;-69
2022/12/17 20:19:02;;;;;;;3.20;3.05;;;;;;;-3.85;100.00;102770.94;10421268;28;20080;-69
2022/12/17 20:24:04;;;;;;;2.35;2.17;;;;;;;-3.76;100.00;102773.81;10421997;28;20111;-69
2022/12/17 20:29:07;;;;;;;2.63;1.33;;;;;;;-3.79;100.00;102774.56;10421220;28;20045;-69
2022/12/17 20:34:12;;;;;;;0.40;0.40;;;;;;;-3.66;100.00;102775.00;10421547;28;20049;-69
2022/12/17 20:39:15;;;;;;;0.30;0.30;;;;;;;-3.48;100.00;102784.94;10421329;28;20099;-69
2022/12/17 20:44:20;;;;;;;0.25;0.25;;;;;;;-3.57;100.00;102778.69;10420094;28;20103;-69
2022/12/17 20:49:23;;;;;;;0.30;0.30;;;;;;;-3.92;100.00;102783.53;10420953;28;20049;-69
2022/12/17 20:54:25;;;;;;;4.18;2.70;;;;;;;-4.24;100.00;102789.19;10420791;28;20065;-69
2022/12/17 20:59:27;;;;;;;1.83;1.83;;;;;;;-4.02;100.00;102794.25;10420540;28;20091;-70
2022/12/17 21:04:30;;;;;;;0.75;0.75;;;;;;;-3.96;100.00;102788.47;10420371;28;20045;-69
2022/12/17 21:09:32;;;;;;;2.88;2.22;;;;;;;-3.99;100.00;102784.13;10419637;28;20196;-69
2022/12/17 21:14:34;;;;;;;1.98;1.98;;;;;;;-3.87;100.00;102781.09;10419997;28;20049;-69
2022/12/17 21:19:37;;;;;;;3.75;1.48;;;;;;;-3.96;100.00;102775.69;10418906;28;20072;-69
2022/12/17 21:24:39;;;;;;;0.22;0.22;;;;;;;-3.98;100.00;102765.41;10419839;28;20076;-69
2022/12/17 21:29:42;;;;;;;0.63;0.63;;;;;;;-4.19;100.00;102762.09;10419431;28;20042;-69
2022/12/17 21:34:45;;;;;;;14.93;9.77;;;;;;;-4.47;100.00;102768.78;10419126;28;20064;-69
2022/12/17 21:39:47;;;;;;;14.32;7.72;;;;;;;-4.31;100.00;102776.19;10419129;28;20132;-69
2022/12/17 21:44:49;;;;;;;1.88;1.75;;;;;;;-4.27;100.00;102799.31;10416863;28;20052;-69
2022/12/17 21:49:52;;;;;;;18.73;9.07;;;;;;;-4.27;100.00;102787.38;10418396;28;20073;-69
2022/12/17 21:54:54;;;;;;;17.73;3.85;;;;;;;-4.45;100.00;102791.84;10417612;28;20054;-69
2022/12/17 21:59:57;;;;;;;0.73;0.73;;;;;;;-4.27;100.00;102812.09;10418136;28;20103;-70
2022/12/17 22:04:59;;;;;;;2.05;1.95;;;;;;;-4.12;100.00;102810.09;10415592;28;20050;-69
2022/12/17 22:10:02;;;;;;;0.30;0.30;;;;;;;-4.37;100.00;102801.56;10416302;28;20049;-69
2022/12/17 22:15:24;;;;;;;0.93;0.93;;;;;;;-4.43;100.00;102808.13;10417572;28;20059;-69
2022/12/17 22:20:33;;;;;;;1.10;1.10;;;;;;;-4.25;100.00;102802.78;10416981;28;20073;-69
2022/12/17 22:25:37;;;;;;;1.23;1.23;;;;;;;-4.40;100.00;102801.44;10415219;28;20412;-69
2022/12/17 22:36:03;;;;;;;0.55;0.55;;;;;;;-4.60;100.00;102813.47;10416809;28;20053;-69
2022/12/17 22:47:06;;;;;;;7.00;6.65;;;;;;;-4.54;100.00;102815.38;10415860;28;20107;-69
2022/12/17 22:52:09;;;;;;;1.73;1.63;;;;;;;-4.86;100.00;102815.03;10416095;28;20045;-69
2022/12/17 22:57:11;;;;;;;0.47;0.47;;;;;;;-4.85;100.00;102812.53;10416122;28;20129;-69
2022/12/17 23:02:33;;;;;;;4.85;2.30;;;;;;;-5.17;100.00;102798.50;10414393;28;20054;-69
2022/12/17 23:07:36;;;;;;;1.90;1.80;;;;;;;-5.02;100.00;102808.47;10416085;28;20041;-70
2022/12/17 23:12:50;;;;;;;0.40;0.40;;;;;;;-5.05;100.00;102801.53;10414991;28;20082;-69
2022/12/17 23:17:55;;;;;;;0.70;0.70;;;;;;;-5.06;100.00;102796.38;10414989;28;20045;-68
2022/12/17 23:22:57;;;;;;;0.93;0.93;;;;;;;-5.05;100.00;102798.13;10414960;28;20167;-69
2022/12/17 23:27:59;;;;;;;3.70;3.40;;;;;;;-5.07;100.00;102800.63;10414240;28;20048;-68
2022/12/17 23:33:02;;;;;;;2.63;2.53;;;;;;;-5.22;100.00;102798.31;10415365;28;20096;-68
2022/12/17 23:38:04;;;;;;;0.88;0.88;;;;;;;-5.24;100.00;102792.28;10417596;28;20045;-68
2022/12/17 23:43:06;;;;;;;1.05;1.05;;;;;;;-5.24;100.00;102801.66;10422115;28;20092;-69
2022/12/17 23:48:14;;;;;;;1.17;1.17;;;;;;;-5.14;100.00;102806.31;10423327;28;20125;-68
2022/12/17 23:53:16;;;;;;;0.38;0.38;;;;;;;-5.35;100.00;102797.78;10422554;28;20061;-68
2022/12/17 23:58:19;;;;;;;0.45;0.45;;;;;;;-5.28;100.00;102798.09;10421703;28;20049;-68
